Time;durP1;ratioP1;P1;durP2;ratioP2;P2;SDS_P1;SDS_P2;PMS_P1;PMS_P2;Temp;Humidity;BMP_temperature;BMP_pressure;BME280_temperature;BME280_humidity;BME280_pressure;Samples;Min_cycle;Max_cycle;Signal;HPM_P1;HPM_P2
2022/12/08 00:00:11;;;;;;;5.63;4.32;;;;;;;;;;5095290;28;20187;-72
2022/12/08 00:02:41;;;;;;;5.15;3.60;;;;;;;;;;5094353;28;20281;-73
2022/12/08 00:10:42;;;;;;;5.28;4.10;;;;;;;;;;5095368;28;20257;-72
2022/12/08 00:13:09;;;;;;;8.05;4.18;;;;;;;;;;5095493;28;20197;-72
2022/12/08 00:15:36;;;;;;;6.35;3.47;;;;;;;;;;5095169;28;20582;-72
2022/12/08 00:18:03;;;;;;;4.75;4.00;;;;;;;;;;5095064;28;20281;-72
2022/12/08 00:20:30;;;;;;;6.85;3.90;;;;;;;;;;5094971;28;20283;-72
2022/12/08 00:22:57;;;;;;;4.13;3.78;;;;;;;;;;5094721;28;20182;-72
2022/12/08 00:25:24;;;;;;;3.60;3.30;;;;;;;;;;5095134;28;20281;-72
2022/12/08 00:27:52;;;;;;;3.63;3.33;;;;;;;;;;5094921;28;20545;-72
2022/12/08 00:30:19;;;;;;;3.97;3.67;;;;;;;;;;5094997;28;20190;-73
2022/12/08 00:32:46;;;;;;;5.03;3.20;;;;;;;;;;5094796;28;20277;-72
2022/12/08 00:35:13;;;;;;;5.95;4.03;;;;;;;;;;5094431;28;20281;-73
2022/12/08 00:37:40;;;;;;;5.18;3.65;;;;;;;;;;5094445;28;20629;-71
2022/12/08 00:40:07;;;;;;;4.80;3.55;;;;;;;;;;5094999;28;20273;-71
2022/12/08 00:42:34;;;;;;;6.47;3.72;;;;;;;;;;5094699;28;20282;-72
2022/12/08 00:45:02;;;;;;;3.97;3.60;;;;;;;;;;5094589;28;20306;-71
2022/12/08 00:47:29;;;;;;;7.00;3.70;;;;;;;;;;5094526;28;20236;-71
2022/12/08 00:49:56;;;;;;;6.25;4.20;;;;;;;;;;5094313;28;20621;-71
2022/12/08 00:52:23;;;;;;;5.72;3.50;;;;;;;;;;5094941;28;20204;-71
2022/12/08 00:54:50;;;;;;;4.30;3.58;;;;;;;;;;5094278;28;20277;-71
2022/12/08 00:57:17;;;;;;;5.53;4.55;;;;;;;;;;5094337;28;20305;-72
2022/12/08 00:59:44;;;;;;;7.60;4.85;;;;;;;;;;5094288;28;20604;-71
2022/12/08 01:02:12;;;;;;;5.90;3.75;;;;;;;;;;5094451;28;20191;-72
2022/12/08 01:04:39;;;;;;;7.05;4.00;;;;;;;;;;5094392;28;20195;-71
2022/12/08 01:07:06;;;;;;;6.45;3.50;;;;;;;;;;5094076;28;20282;-72
2022/12/08 01:09:33;;;;;;;3.20;3.00;;;;;;;;;;5094350;28;20282;-72
2022/12/08 01:12:00;;;;;;;5.03;3.60;;;;;;;;;;5093961;28;20277;-72
2022/12/08 01:14:27;;;;;;;4.00;3.17;;;;;;;;;;5094115;28;20290;-72
2022/12/08 01:16:54;;;;;;;4.40;3.45;;;;;;;;;;5093884;28;20309;-72
2022/12/08 01:19:22;;;;;;;4.10;3.42;;;;;;;;;;5093832;28;20194;-72
2022/12/08 01:21:49;;;;;;;4.57;2.90;;;;;;;;;;5093994;28;20285;-72
2022/12/08 01:24:16;;;;;;;4.18;3.30;;;;;;;;;;5094203;28;20278;-72
2022/12/08 01:26:44;;;;;;;3.42;3.13;;;;;;;;;;5093819;28;20194;-72
2022/12/08 01:29:11;;;;;;;5.88;3.00;;;;;;;;;;5093679;28;20277;-72
2022/12/08 01:31:38;;;;;;;4.18;3.25;;;;;;;;;;5093645;28;20281;-72
2022/12/08 01:34:05;;;;;;;3.90;3.30;;;;;;;;;;5093754;28;20186;-72
2022/12/08 01:36:35;;;;;;;3.67;3.28;;;;;;;;;;5093454;28;20223;-73
2022/12/08 01:39:02;;;;;;;4.95;3.10;;;;;;;;;;5093687;28;20558;-73
2022/12/08 01:41:31;;;;;;;6.05;3.30;;;;;;;;;;5093800;28;20284;-73
2022/12/08 01:44:00;;;;;;;4.15;3.35;;;;;;;;;;5093560;28;20202;-73
2022/12/08 01:46:27;;;;;;;3.22;3.03;;;;;;;;;;5093481;28;20230;-73
2022/12/08 01:48:57;;;;;;;5.18;3.00;;;;;;;;;;5093575;28;20278;-73
2022/12/08 01:51:25;;;;;;;5.47;3.53;;;;;;;;;;5093558;28;20187;-73
2022/12/08 01:53:53;;;;;;;4.35;3.03;;;;;;;;;;5093484;28;20195;-73
2022/12/08 01:56:24;;;;;;;3.15;2.85;;;;;;;;;;5093386;28;20223;-73
2022/12/08 01:58:53;;;;;;;3.25;2.95;;;;;;;;;;5093301;28;20191;-73
2022/12/08 02:01:19;;;;;;;3.33;3.03;;;;;;;;;;5093371;28;20280;-72
2022/12/08 02:03:49;;;;;;;4.00;3.67;;;;;;;;;;5093364;28;20628;-73
2022/12/08 02:06:16;;;;;;;3.40;3.10;;;;;;;;;;5093182;28;20583;-73
2022/12/08 02:08:44;;;;;;;3.38;2.90;;;;;;;;;;5093156;28;20277;-72
2022/12/08 02:11:13;;;;;;;4.25;3.08;;;;;;;;;;5092918;28;20641;-73
2022/12/08 02:13:40;;;;;;;5.65;3.35;;;;;;;;;;5092125;28;20213;-72
2022/12/08 02:16:10;;;;;;;3.20;2.90;;;;;;;;;;5093025;28;20211;-72
2022/12/08 02:18:45;;;;;;;3.47;3.08;;;;;;;;;;5092985;28;20223;-72
2022/12/08 02:21:14;;;;;;;3.53;3.22;;;;;;;;;;5092896;28;20196;-73
2022/12/08 02:23:47;;;;;;;4.35;3.45;;;;;;;;;;5092423;28;20194;-72
2022/12/08 02:26:29;;;;;;;4.45;3.15;;;;;;;;;;5093053;28;20191;-72
2022/12/08 02:29:06;;;;;;;4.70;3.40;;;;;;;;;;5093055;28;20282;-73
2022/12/08 02:31:37;;;;;;;6.53;3.85;;;;;;;;;;5092948;28;20286;-73
2022/12/08 02:34:18;;;;;;;3.88;3.50;;;;;;;;;;5092786;28;20282;-72
2022/12/08 02:36:48;;;;;;;5.32;3.80;;;;;;;;;;5093046;28;20218;-72
2022/12/08 02:39:21;;;;;;;7.10;3.95;;;;;;;;;;5093079;28;20644;-73
2022/12/08 02:41:49;;;;;;;4.00;3.70;;;;;;;;;;5092994;28;20285;-73
2022/12/08 02:44:20;;;;;;;4.47;4.07;;;;;;;;;;5092893;28;20604;-73
2022/12/08 02:46:53;;;;;;;4.90;4.50;;;;;;;;;;5092636;28;20222;-72
2022/12/08 02:49:21;;;;;;;4.88;4.43;;;;;;;;;;5092986;28;20248;-72
2022/12/08 02:51:48;;;;;;;5.05;4.40;;;;;;;;;;5092927;28;20199;-72
2022/12/08 02:54:15;;;;;;;4.88;4.38;;;;;;;;;;5092825;28;20193;-73
2022/12/08 02:56:51;;;;;;;5.03;4.43;;;;;;;;;;5092710;28;20220;-72
2022/12/08 02:59:26;;;;;;;8.63;4.93;;;;;;;;;;5092668;28;20205;-72
2022/12/08 03:02:00;;;;;;;5.15;4.65;;;;;;;;;;5091839;28;20281;-73
2022/12/08 03:04:33;;;;;;;7.13;5.13;;;;;;;;;;5092890;28;20205;-73
2022/12/08 03:07:05;;;;;;;4.85;4.35;;;;;;;;;;5092601;28;20226;-73
2022/12/08 03:09:35;;;;;;;5.22;4.70;;;;;;;;;;5092490;28;20201;-72
2022/12/08 03:12:05;;;;;;;6.32;4.75;;;;;;;;;;5092937;28;20195;-72
2022/12/08 03:14:33;;;;;;;5.60;5.10;;;;;;;;;;5092692;28;20298;-72
2022/12/08 03:17:00;;;;;;;4.60;4.20;;;;;;;;;;5092519;28;20248;-73
2022/12/08 03:19:31;;;;;;;4.78;4.30;;;;;;;;;;5092704;28;20194;-73
2022/12/08 03:22:02;;;;;;;5.70;5.00;;;;;;;;;;5092256;28;20281;-72
2022/12/08 03:24:30;;;;;;;5.20;4.70;;;;;;;;;;5092686;28;20201;-73
2022/12/08 03:26:59;;;;;;;4.22;3.83;;;;;;;;;;5092529;28;20277;-72
2022/12/08 03:29:26;;;;;;;5.20;4.15;;;;;;;;;;5092443;28;20202;-72
2022/12/08 03:31:55;;;;;;;4.53;4.13;;;;;;;;;;5092506;28;20195;-72
2022/12/08 03:34:23;;;;;;;3.83;3.53;;;;;;;;;;5092333;28;20595;-72
2022/12/08 03:36:51;;;;;;;3.97;3.63;;;;;;;;;;5094884;28;20217;-72
2022/12/08 03:39:18;;;;;;;5.57;4.35;;;;;;;;;;5096084;28;20282;-72
2022/12/08 03:41:46;;;;;;;4.35;3.95;;;;;;;;;;5096012;28;20191;-72
2022/12/08 03:44:13;;;;;;;5.00;4.57;;;;;;;;;;5095841;28;20328;-73
2022/12/08 03:46:40;;;;;;;3.70;3.40;;;;;;;;;;5095786;28;20797;-73
2022/12/08 03:49:07;;;;;;;4.53;4.13;;;;;;;;;;5095753;28;20281;-72
2022/12/08 03:51:34;;;;;;;4.30;3.90;;;;;;;;;;5096028;28;20634;-73
2022/12/08 03:54:02;;;;;;;6.05;3.92;;;;;;;;;;5095870;28;20281;-72
2022/12/08 03:56:30;;;;;;;4.05;3.75;;;;;;;;;;5095726;28;20290;-73
2022/12/08 03:58:57;;;;;;;4.15;3.80;;;;;;;;;;5095978;28;20599;-73
2022/12/08 04:01:24;;;;;;;4.65;4.25;;;;;;;;;;5095727;28;20194;-73
2022/12/08 04:03:52;;;;;;;5.25;4.75;;;;;;;;;;5095308;28;20190;-72
2022/12/08 04:06:19;;;;;;;4.97;4.53;;;;;;;;;;5095514;28;20277;-72
2022/12/08 04:08:46;;;;;;;4.85;4.45;;;;;;;;;;5095710;28;20202;-72
2022/12/08 04:11:14;;;;;;;5.65;4.95;;;;;;;;;;5095535;28;20213;-73
2022/12/08 04:13:42;;;;;;;5.75;5.25;;;;;;;;;;5095429;28;20289;-72
2022/12/08 04:16:09;;;;;;;5.72;5.22;;;;;;;;;;5095193;28;20199;-73
2022/12/08 04:18:36;;;;;;;7.47;5.90;;;;;;;;;;5095195;28;20224;-72
2022/12/08 04:21:03;;;;;;;6.05;5.20;;;;;;;;;;5095179;28;20194;-72
2022/12/08 04:23:30;;;;;;;5.85;5.35;;;;;;;;;;5095220;28;20286;-72
2022/12/08 04:25:57;;;;;;;6.80;6.10;;;;;;;;;;5095218;28;20557;-72
2022/12/08 04:28:25;;;;;;;5.63;5.10;;;;;;;;;;5094985;28;20224;-73
2022/12/08 04:30:52;;;;;;;7.20;6.10;;;;;;;;;;5094912;28;20191;-73
2022/12/08 04:33:19;;;;;;;7.05;6.38;;;;;;;;;;5095126;28;20192;-72
2022/12/08 04:35:46;;;;;;;7.20;6.10;;;;;;;;;;5094955;28;20297;-72
2022/12/08 04:38:13;;;;;;;7.68;5.57;;;;;;;;;;5094699;28;20262;-73
2022/12/08 04:40:40;;;;;;;7.75;6.38;;;;;;;;;;5095042;28;20650;-73
2022/12/08 04:43:07;;;;;;;6.97;6.00;;;;;;;;;;5094794;28;20277;-73
2022/12/08 04:45:35;;;;;;;7.53;6.63;;;;;;;;;;5094513;28;20278;-72
2022/12/08 04:48:02;;;;;;;12.07;7.47;;;;;;;;;;5093833;28;20309;-73
2022/12/08 04:50:29;;;;;;;11.60;7.13;;;;;;;;;;5094593;28;20195;-72
2022/12/08 04:52:56;;;;;;;7.53;6.60;;;;;;;;;;5094619;28;20286;-73
2022/12/08 04:55:23;;;;;;;9.70;8.27;;;;;;;;;;5094482;28;20194;-72
2022/12/08 04:57:50;;;;;;;8.02;6.72;;;;;;;;;;5094175;28;20219;-73
2022/12/08 05:00:17;;;;;;;8.48;7.20;;;;;;;;;;5094633;28;20248;-73
2022/12/08 05:02:45;;;;;;;9.90;7.78;;;;;;;;;;5094576;28;20188;-73
2022/12/08 05:05:12;;;;;;;9.27;7.28;;;;;;;;;;5094362;28;20241;-72
2022/12/08 05:07:39;;;;;;;8.70;7.80;;;;;;;;;;5094249;28;20657;-73
2022/12/08 05:10:07;;;;;;;12.57;8.88;;;;;;;;;;5094150;28;20281;-73
2022/12/08 05:12:34;;;;;;;9.98;7.78;;;;;;;;;;5093903;28;20278;-73
2022/12/08 05:15:01;;;;;;;8.48;7.57;;;;;;;;;;5094369;28;20660;-72
2022/12/08 05:17:27;;;;;;;10.20;7.30;;;;;;;;;;5093999;28;20216;-73
2022/12/08 05:19:56;;;;;;;7.95;6.97;;;;;;;;;;5094068;28;20187;-73
2022/12/08 05:22:23;;;;;;;11.13;8.25;;;;;;;;;;5094133;28;20282;-73
2022/12/08 05:24:50;;;;;;;9.68;7.70;;;;;;;;;;5093838;28;20273;-72
2022/12/08 05:27:17;;;;;;;9.18;7.53;;;;;;;;;;5093673;28;20294;-73
2022/12/08 05:29:46;;;;;;;9.60;8.27;;;;;;;;;;5093729;28;20193;-73
2022/12/08 05:32:13;;;;;;;9.85;8.15;;;;;;;;;;5092298;28;20205;-73
2022/12/08 05:34:40;;;;;;;11.82;7.80;;;;;;;;;;5093642;28;20289;-74
2022/12/08 05:37:08;;;;;;;13.07;9.00;;;;;;;;;;5094049;28;20277;-73
2022/12/08 05:39:35;;;;;;;10.13;7.78;;;;;;;;;;5093469;28;20281;-73
2022/12/08 05:42:02;;;;;;;10.50;8.80;;;;;;;;;;5093728;28;20285;-73
2022/12/08 05:44:28;;;;;;;9.95;8.05;;;;;;;;;;5093543;28;20277;-73
2022/12/08 05:46:55;;;;;;;10.88;7.25;;;;;;;;;;5093388;28;20245;-73
2022/12/08 05:49:22;;;;;;;9.60;8.25;;;;;;;;;;5093494;28;20281;-73
2022/12/08 05:51:49;;;;;;;17.23;9.82;;;;;;;;;;5093501;28;20190;-73
2022/12/08 05:54:17;;;;;;;11.30;8.52;;;;;;;;;;5093215;28;20224;-73
2022/12/08 05:56:44;;;;;;;12.38;9.02;;;;;;;;;;5093592;28;20201;-74
2022/12/08 05:59:11;;;;;;;10.60;8.65;;;;;;;;;;5093391;28;20294;-74
2022/12/08 06:01:38;;;;;;;13.60;8.77;;;;;;;;;;5093352;28;20285;-74
2022/12/08 06:04:05;;;;;;;10.70;8.98;;;;;;;;;;5093153;28;20206;-74
2022/12/08 06:06:34;;;;;;;12.38;8.85;;;;;;;;;;5093143;28;20232;-74
2022/12/08 06:09:02;;;;;;;10.63;8.27;;;;;;;;;;5093316;28;20191;-73
2022/12/08 06:11:31;;;;;;;10.68;8.80;;;;;;;;;;5093217;28;20387;-74
2022/12/08 06:13:59;;;;;;;10.77;8.50;;;;;;;;;;5093167;28;20197;-73
2022/12/08 06:16:26;;;;;;;11.63;8.48;;;;;;;;;;5092973;28;20277;-73
2022/12/08 06:18:53;;;;;;;10.05;8.65;;;;;;;;;;5093011;28;20215;-74
2022/12/08 06:21:20;;;;;;;11.10;9.05;;;;;;;;;;5092648;28;20317;-73
2022/12/08 06:23:48;;;;;;;11.05;8.45;;;;;;;;;;5093223;28;20273;-74
2022/12/08 06:26:15;;;;;;;13.18;8.82;;;;;;;;;;5093149;28;20636;-74
2022/12/08 06:28:44;;;;;;;20.75;13.82;;;;;;;;;;5092990;28;20275;-74
2022/12/08 06:31:11;;;;;;;13.70;9.25;;;;;;;;;;5092851;28;20290;-74
2022/12/08 06:33:39;;;;;;;15.30;11.98;;;;;;;;;;5092617;28;20281;-73
2022/12/08 06:36:06;;;;;;;11.85;9.90;;;;;;;;;;5092626;28;20197;-74
2022/12/08 06:38:33;;;;;;;12.88;9.82;;;;;;;;;;5092926;28;20257;-73
2022/12/08 06:41:00;;;;;;;12.88;9.23;;;;;;;;;;5092422;28;20201;-74
2022/12/08 06:43:28;;;;;;;12.63;9.57;;;;;;;;;;5092825;28;20279;-73
2022/12/08 06:45:56;;;;;;;14.20;9.95;;;;;;;;;;5092390;28;20668;-73
2022/12/08 06:48:23;;;;;;;11.05;9.00;;;;;;;;;;5092671;28;20302;-73
2022/12/08 06:50:50;;;;;;;13.45;9.30;;;;;;;;;;5092809;28;20186;-73
2022/12/08 06:53:17;;;;;;;10.68;8.57;;;;;;;;;;5092556;28;20646;-73
2022/12/08 06:55:44;;;;;;;13.25;10.50;;;;;;;;;;5092591;28;20716;-73
2022/12/08 06:58:12;;;;;;;12.18;9.38;;;;;;;;;;5092284;28;20305;-73
2022/12/08 07:00:39;;;;;;;10.90;9.07;;;;;;;;;;5092386;28;20192;-73
2022/12/08 07:03:08;;;;;;;13.13;9.32;;;;;;;;;;5092690;28;20278;-73
2022/12/08 07:05:35;;;;;;;13.55;9.15;;;;;;;;;;5092659;28;20219;-73
2022/12/08 07:08:02;;;;;;;11.43;9.40;;;;;;;;;;5092473;28;20289;-73
2022/12/08 07:10:29;;;;;;;12.82;9.13;;;;;;;;;;5093201;28;20306;-73
2022/12/08 07:12:56;;;;;;;10.60;8.65;;;;;;;;;;5095933;28;20199;-73
2022/12/08 07:15:23;;;;;;;10.85;8.90;;;;;;;;;;5096239;28;20213;-74
2022/12/08 07:17:50;;;;;;;11.93;8.48;;;;;;;;;;5096341;28;20221;-73
2022/12/08 07:20:18;;;;;;;13.77;9.68;;;;;;;;;;5096233;28;20670;-73
2022/12/08 07:22:48;;;;;;;10.15;8.15;;;;;;;;;;5096179;28;20613;-73
2022/12/08 07:25:16;;;;;;;16.30;9.20;;;;;;;;;;5095025;28;20531;-73
2022/12/08 07:27:45;;;;;;;14.57;9.73;;;;;;;;;;5095758;28;20283;-72
2022/12/08 07:30:12;;;;;;;11.15;8.55;;;;;;;;;;5096053;28;20268;-73
2022/12/08 07:32:40;;;;;;;13.13;9.75;;;;;;;;;;5096269;28;20229;-73
2022/12/08 07:35:09;;;;;;;11.75;9.30;;;;;;;;;;5095971;28;20576;-73
2022/12/08 07:37:37;;;;;;;15.38;8.40;;;;;;;;;;5095788;28;20191;-73
2022/12/08 07:40:05;;;;;;;11.77;9.32;;;;;;;;;;5095930;28;20283;-73
2022/12/08 07:42:32;;;;;;;23.85;15.93;;;;;;;;;;5095443;28;20278;-73
2022/12/08 07:44:59;;;;;;;12.35;9.40;;;;;;;;;;5095819;28;20618;-73
2022/12/08 07:47:26;;;;;;;13.10;8.80;;;;;;;;;;5095515;28;20227;-73
2022/12/08 07:49:53;;;;;;;12.23;9.20;;;;;;;;;;5095558;28;20672;-73
2022/12/08 07:52:20;;;;;;;14.23;8.95;;;;;;;;;;5095867;28;20365;-73
2022/12/08 07:54:48;;;;;;;16.33;9.98;;;;;;;;;;5095569;28;20255;-73
2022/12/08 07:57:16;;;;;;;11.20;9.50;;;;;;;;;;5095858;28;20223;-73
2022/12/08 07:59:42;;;;;;;12.27;9.85;;;;;;;;;;5095583;28;20219;-73
2022/12/08 08:02:13;;;;;;;11.23;9.75;;;;;;;;;;5095534;28;20297;-73
2022/12/08 08:04:40;;;;;;;12.57;9.20;;;;;;;;;;5095493;28;20603;-73
2022/12/08 08:07:07;;;;;;;11.50;9.05;;;;;;;;;;5095231;28;20187;-73
2022/12/08 08:09:34;;;;;;;13.40;9.52;;;;;;;;;;5095428;28;20602;-73
2022/12/08 08:12:02;;;;;;;12.18;10.05;;;;;;;;;;5095353;28;20191;-73
2022/12/08 08:14:29;;;;;;;12.98;9.02;;;;;;;;;;5095444;28;20281;-73
2022/12/08 08:16:56;;;;;;;12.80;9.38;;;;;;;;;;5095255;28;20283;-73
2022/12/08 08:19:23;;;;;;;13.68;9.38;;;;;;;;;;5094814;28;20306;-73
2022/12/08 08:21:50;;;;;;;13.38;9.77;;;;;;;;;;5094139;28;20628;-72
2022/12/08 08:24:17;;;;;;;12.02;10.35;;;;;;;;;;5094252;28;20202;-76
2022/12/08 08:26:44;;;;;;;15.95;12.30;;;;;;;;;;5094212;28;20934;-71
2022/12/08 08:29:12;;;;;;;13.30;10.85;;;;;;;;;;5095006;28;20279;-67
2022/12/08 08:31:39;;;;;;;13.80;10.98;;;;;;;;;;5094835;28;20284;-65
2022/12/08 08:34:06;;;;;;;14.10;10.15;;;;;;;;;;5094635;28;20200;-65
2022/12/08 08:36:33;;;;;;;11.68;9.20;;;;;;;;;;5094706;28;20187;-67
2022/12/08 08:39:00;;;;;;;12.68;10.23;;;;;;;;;;5094413;28;20701;-70
2022/12/08 08:41:27;;;;;;;13.50;9.52;;;;;;;;;;5094815;28;20244;-72
2022/12/08 08:43:55;;;;;;;12.10;9.30;;;;;;;;;;5094693;28;20614;-66
2022/12/08 08:46:23;;;;;;;17.13;10.13;;;;;;;;;;5094211;28;20228;-74
2022/12/08 08:48:50;;;;;;;15.82;11.02;;;;;;;;;;5094645;28;20209;-72
2022/12/08 08:51:17;;;;;;;15.80;10.40;;;;;;;;;;5094144;28;20283;-78
2022/12/08 08:53:44;;;;;;;13.77;10.38;;;;;;;;;;5094272;28;20198;-66
2022/12/08 08:56:11;;;;;;;14.20;9.80;;;;;;;;;;5094282;28;20265;-62
2022/12/08 08:58:38;;;;;;;11.95;10.00;;;;;;;;;;5093908;28;20215;-62
2022/12/08 09:01:05;;;;;;;11.98;9.90;;;;;;;;;;5093486;28;20658;-62
2022/12/08 09:03:35;;;;;;;12.15;10.30;;;;;;;;;;5094197;28;20618;-63
2022/12/08 09:06:03;;;;;;;13.23;10.40;;;;;;;;;;5094276;28;20202;-64
2022/12/08 09:08:30;;;;;;;12.57;9.35;;;;;;;;;;5094215;28;20282;-64
2022/12/08 09:10:57;;;;;;;15.75;9.80;;;;;;;;;;5094113;28;20641;-64
2022/12/08 09:13:24;;;;;;;11.73;9.13;;;;;;;;;;5094113;28;20278;-64
2022/12/08 09:15:50;;;;;;;11.60;8.90;;;;;;;;;;5093913;28;20241;-64
2022/12/08 09:18:17;;;;;;;10.27;8.95;;;;;;;;;;5093651;28;20187;-63
2022/12/08 09:20:45;;;;;;;16.38;10.98;;;;;;;;;;5093977;28;20618;-64
2022/12/08 09:23:12;;;;;;;12.10;9.48;;;;;;;;;;5093959;28;20282;-64
2022/12/08 09:25:39;;;;;;;12.70;10.15;;;;;;;;;;5093914;28;20282;-64
2022/12/08 09:28:06;;;;;;;14.30;11.13;;;;;;;;;;5093629;28;20300;-64
2022/12/08 09:30:33;;;;;;;14.18;8.90;;;;;;;;;;5093571;28;20478;-64
2022/12/08 09:33:00;;;;;;;10.55;9.38;;;;;;;;;;5093214;28;20187;-64
2022/12/08 09:35:27;;;;;;;12.65;10.02;;;;;;;;;;5093677;28;20626;-64
2022/12/08 09:37:55;;;;;;;14.52;9.70;;;;;;;;;;5093609;28;20240;-64
2022/12/08 09:40:24;;;;;;;13.50;9.23;;;;;;;;;;5093308;28;20219;-67
2022/12/08 09:42:52;;;;;;;13.07;10.38;;;;;;;;;;5093327;28;20201;-65
2022/12/08 09:45:20;;;;;;;12.70;9.73;;;;;;;;;;5093185;28;20201;-70
2022/12/08 09:47:48;;;;;;;11.00;9.35;;;;;;;;;;5094835;28;20332;-63
2022/12/08 09:50:20;;;;;;;12.50;9.95;;;;;;;;;;5102077;28;20203;-76
2022/12/08 09:52:50;;;;;;;14.90;11.80;;;;;;;;;;5100041;28;20548;-74
2022/12/08 09:55:21;;;;;;;13.98;10.50;;;;;;;;;;5097240;28;20219;-63
2022/12/08 09:57:51;;;;;;;15.48;11.57;;;;;;;;;;5093036;28;20195;-71
2022/12/08 10:00:18;;;;;;;13.05;9.60;;;;;;;;;;5093804;28;20212;-69
2022/12/08 10:02:46;;;;;;;14.88;10.85;;;;;;;;;;5102318;28;20266;-72
2022/12/08 10:05:14;;;;;;;14.55;11.38;;;;;;;;;;5093397;28;20286;-68
2022/12/08 10:07:45;;;;;;;13.48;10.73;;;;;;;;;;5095205;28;20184;-64
2022/12/08 10:10:19;;;;;;;14.05;9.40;;;;;;;;;;5095020;28;20282;-69
2022/12/08 10:12:49;;;;;;;12.55;10.15;;;;;;;;;;5093005;28;20216;-63
2022/12/08 10:15:27;;;;;;;13.52;9.20;;;;;;;;;;5093135;28;20284;-62
2022/12/08 10:17:54;;;;;;;10.52;9.35;;;;;;;;;;5092590;28;20220;-72
2022/12/08 10:20:23;;;;;;;12.05;9.82;;;;;;;;;;5097832;28;20953;-63
2022/12/08 10:22:51;;;;;;;10.18;9.18;;;;;;;;;;5105781;28;20538;-71
2022/12/08 10:25:20;;;;;;;10.87;9.40;;;;;;;;;;5092786;28;20697;-70
2022/12/08 10:27:50;;;;;;;11.63;9.40;;;;;;;;;;5093047;28;20577;-70
2022/12/08 10:30:18;;;;;;;15.65;9.93;;;;;;;;;;5092809;28;20528;-76
2022/12/08 10:32:46;;;;;;;12.55;9.93;;;;;;;;;;5092919;28;20278;-68
2022/12/08 10:35:14;;;;;;;16.55;10.60;;;;;;;;;;5104693;28;20186;-71
2022/12/08 10:37:40;;;;;;;11.82;8.98;;;;;;;;;;5112998;28;20205;-73
2022/12/08 10:40:11;;;;;;;13.82;9.90;;;;;;;;;;5106723;28;20712;-70
2022/12/08 10:42:38;;;;;;;12.90;10.52;;;;;;;;;;5113215;28;20721;-65
2022/12/08 10:45:19;;;;;;;14.55;10.73;;;;;;;;;;5113072;28;20190;-65
2022/12/08 10:47:50;;;;;;;12.20;9.70;;;;;;;;;;5116929;28;20218;-73
2022/12/08 10:50:19;;;;;;;15.40;10.30;;;;;;;;;;5117400;28;20457;-74
2022/12/08 10:52:47;;;;;;;13.55;8.02;;;;;;;;;;5113912;28;20285;-67
2022/12/08 10:55:14;;;;;;;12.10;9.30;;;;;;;;;;5108291;28;20620;-70
2022/12/08 10:57:41;;;;;;;12.30;9.13;;;;;;;;;;5096716;28;20583;-66
2022/12/08 11:00:12;;;;;;;13.18;8.77;;;;;;;;;;5100695;28;20480;-69
2022/12/08 11:02:50;;;;;;;10.75;8.57;;;;;;;;;;5116804;28;20194;-68
2022/12/08 11:05:18;;;;;;;10.65;8.73;;;;;;;;;;5115684;28;20199;-66
2022/12/08 11:07:46;;;;;;;11.02;9.32;;;;;;;;;;5107187;28;20195;-74
2022/12/08 11:10:17;;;;;;;11.75;9.38;;;;;;;;;;5095996;28;20647;-76
2022/12/08 11:12:44;;;;;;;11.73;9.07;;;;;;;;;;5096063;28;20191;-71
2022/12/08 11:15:15;;;;;;;12.10;9.00;;;;;;;;;;5096155;28;20591;-68
2022/12/08 11:17:45;;;;;;;12.13;7.85;;;;;;;;;;5116761;28;20814;-75
2022/12/08 11:20:22;;;;;;;9.48;8.48;;;;;;;;;;5104588;28;20585;-70
2022/12/08 11:22:52;;;;;;;10.20;8.07;;;;;;;;;;5095893;28;20278;-68
2022/12/08 11:25:20;;;;;;;10.63;7.57;;;;;;;;;;5101186;28;21031;-72
2022/12/08 11:27:47;;;;;;;10.40;9.27;;;;;;;;;;5114415;28;20281;-73
2022/12/08 11:30:16;;;;;;;9.90;8.90;;;;;;;;;;5116544;28;20547;-73
2022/12/08 11:32:45;;;;;;;9.97;8.30;;;;;;;;;;5113087;28;20188;-63
2022/12/08 11:35:18;;;;;;;9.98;8.57;;;;;;;;;;5096707;28;20446;-69
2022/12/08 11:37:45;;;;;;;10.43;8.60;;;;;;;;;;5095512;28;20187;-69
2022/12/08 11:40:16;;;;;;;9.60;8.70;;;;;;;;;;5095454;28;20738;-68
2022/12/08 11:42:46;;;;;;;12.60;8.90;;;;;;;;;;5095752;28;20276;-68
2022/12/08 11:45:18;;;;;;;14.00;10.18;;;;;;;;;;5095557;28;20455;-66
2022/12/08 11:47:50;;;;;;;11.85;9.40;;;;;;;;;;5095419;28;20219;-69
2022/12/08 11:50:20;;;;;;;14.05;10.30;;;;;;;;;;5097521;28;20834;-70
2022/12/08 11:52:48;;;;;;;11.30;9.45;;;;;;;;;;5098214;28;20658;-69
2022/12/08 11:55:23;;;;;;;11.32;9.80;;;;;;;;;;5095242;28;20192;-66
2022/12/08 11:57:51;;;;;;;11.90;10.40;;;;;;;;;;5095390;28;20197;-73
2022/12/08 12:00:19;;;;;;;10.32;8.95;;;;;;;;;;5095386;28;20488;-74
2022/12/08 12:02:50;;;;;;;14.15;9.95;;;;;;;;;;5095163;28;20191;-64
2022/12/08 12:05:24;;;;;;;13.03;10.00;;;;;;;;;;5095565;28;20223;-64
2022/12/08 12:08:00;;;;;;;12.18;9.77;;;;;;;;;;5095322;28;20546;-63
2022/12/08 12:10:33;;;;;;;14.00;10.07;;;;;;;;;;5095536;28;20728;-73
2022/12/08 12:13:05;;;;;;;12.00;9.85;;;;;;;;;;5095619;28;20197;-73
2022/12/08 12:16:05;;;;;;;14.27;10.13;;;;;;;;;;5095071;28;20266;-69
2022/12/08 12:18:36;;;;;;;13.50;9.40;;;;;;;;;;5016488;28;20362;-61
2022/12/08 12:21:06;;;;;;;11.83;8.57;;;;;;;;;;5020677;28;21049;-68
2022/12/08 12:23:36;;;;;;;9.57;8.53;;;;;;;;;;5067686;28;20445;-71
2022/12/08 12:26:06;;;;;;;9.77;8.73;;;;;;;;;;5097524;28;20891;-70
2022/12/08 12:28:40;;;;;;;7.78;7.05;;;;;;;;;;5095147;28;20217;-70
2022/12/08 12:31:08;;;;;;;12.93;7.97;;;;;;;;;;5094972;28;20191;-73
2022/12/08 12:33:37;;;;;;;9.02;7.10;;;;;;;;;;5094737;28;20203;-72
2022/12/08 12:36:06;;;;;;;8.10;7.25;;;;;;;;;;5094185;28;20198;-71
2022/12/08 12:41:23;;;;;;;7.83;7.03;;;;;;;;;;5109490;28;20697;-66
2022/12/08 12:44:05;;;;;;;12.25;9.30;;;;;;;;;;5094664;28;20453;-69
2022/12/08 12:46:40;;;;;;;10.75;8.45;;;;;;;;;;5096687;28;20264;-73
2022/12/08 12:49:25;;;;;;;7.97;7.13;;;;;;;;;;5107000;28;20274;-69
2022/12/08 12:51:55;;;;;;;12.00;8.30;;;;;;;;;;5104313;28;20251;-76
2022/12/08 12:54:23;;;;;;;9.65;8.65;;;;;;;;;;5100395;28;20187;-63
2022/12/08 12:56:51;;;;;;;11.05;8.43;;;;;;;;;;5094243;28;20198;-62
2022/12/08 12:59:32;;;;;;;10.77;9.05;;;;;;;;;;5094036;28;20195;-69
2022/12/08 13:02:01;;;;;;;9.80;8.40;;;;;;;;;;5094088;28;20615;-68
2022/12/08 13:04:29;;;;;;;9.67;8.67;;;;;;;;;;5094184;28;20465;-64
2022/12/08 13:06:58;;;;;;;11.30;9.33;;;;;;;;;;5094022;28;20548;-68
2022/12/08 13:09:29;;;;;;;10.67;8.93;;;;;;;;;;5093442;28;20552;-61
2022/12/08 13:11:57;;;;;;;13.15;9.73;;;;;;;;;;5094267;28;20967;-61
2022/12/08 13:14:27;;;;;;;13.98;10.30;;;;;;;;;;5094129;28;20303;-61
2022/12/08 13:16:55;;;;;;;12.02;9.70;;;;;;;;;;5093972;28;20279;-74
2022/12/08 13:19:22;;;;;;;10.70;9.10;;;;;;;;;;5093817;28;20310;-74
2022/12/08 13:21:49;;;;;;;12.13;10.65;;;;;;;;;;5098667;28;20441;-72
2022/12/08 13:24:28;;;;;;;13.82;10.57;;;;;;;;;;5097730;28;20187;-71
2022/12/08 13:27:10;;;;;;;12.37;10.10;;;;;;;;;;5114059;28;20281;-66
2022/12/08 13:29:37;;;;;;;11.87;10.30;;;;;;;;;;5113406;28;20837;-68
2022/12/08 13:32:05;;;;;;;15.40;11.45;;;;;;;;;;5113950;28;20539;-63
2022/12/08 13:34:35;;;;;;;10.07;9.03;;;;;;;;;;5113550;28;20250;-67
2022/12/08 13:37:08;;;;;;;10.93;9.40;;;;;;;;;;5113596;28;20545;-68
2022/12/08 13:39:41;;;;;;;15.02;10.68;;;;;;;;;;5094469;28;20533;-67
2022/12/08 13:42:16;;;;;;;12.20;9.80;;;;;;;;;;5092438;28;20190;-62
2022/12/08 13:44:45;;;;;;;11.93;10.47;;;;;;;;;;5092193;28;20940;-61
2022/12/08 13:47:14;;;;;;;12.63;10.00;;;;;;;;;;5100981;28;20477;-64
2022/12/08 13:49:44;;;;;;;11.63;9.85;;;;;;;;;;5093567;28;20453;-66
2022/12/08 13:52:15;;;;;;;9.80;8.80;;;;;;;;;;5093337;28;20381;-67
2022/12/08 13:54:44;;;;;;;14.88;10.02;;;;;;;;;;5093302;28;20199;-64
2022/12/08 13:57:18;;;;;;;13.60;9.45;;;;;;;;;;5093116;28;20192;-64
2022/12/08 13:59:45;;;;;;;14.70;11.18;;;;;;;;;;5092968;28;20285;-64
2022/12/08 14:02:16;;;;;;;15.37;10.67;;;;;;;;;;5092358;28;20241;-64
2022/12/08 14:04:45;;;;;;;14.60;10.07;;;;;;;;;;5093273;28;20457;-64
2022/12/08 14:07:13;;;;;;;12.85;10.23;;;;;;;;;;5092869;28;20542;-64
2022/12/08 14:09:40;;;;;;;11.00;9.85;;;;;;;;;;5093091;28;20198;-64
2022/12/08 14:12:14;;;;;;;14.10;10.67;;;;;;;;;;5092928;28;20725;-64
2022/12/08 14:14:43;;;;;;;14.47;10.50;;;;;;;;;;5093077;28;20450;-64
2022/12/08 14:17:12;;;;;;;13.57;11.20;;;;;;;;;;5092638;28;20816;-65
2022/12/08 14:19:39;;;;;;;10.82;9.73;;;;;;;;;;5092231;28;20445;-64
2022/12/08 14:22:11;;;;;;;12.35;10.98;;;;;;;;;;5092385;28;20231;-64
2022/12/08 14:24:38;;;;;;;11.77;9.70;;;;;;;;;;5092727;28;20198;-64
2022/12/08 14:27:06;;;;;;;11.32;9.45;;;;;;;;;;5093008;28;20468;-64
2022/12/08 14:29:44;;;;;;;12.00;10.20;;;;;;;;;;5092515;28;20735;-64
2022/12/08 14:32:21;;;;;;;13.90;10.40;;;;;;;;;;5092762;28;20458;-64
2022/12/08 14:34:52;;;;;;;12.77;11.48;;;;;;;;;;5092681;28;20536;-64
2022/12/08 14:37:19;;;;;;;15.17;12.10;;;;;;;;;;5093065;28;20191;-64
2022/12/08 14:39:46;;;;;;;15.07;11.93;;;;;;;;;;5092841;28;20456;-64
2022/12/08 14:42:18;;;;;;;10.87;8.97;;;;;;;;;;5092548;28;20823;-64
2022/12/08 14:44:46;;;;;;;8.90;8.00;;;;;;;;;;5092638;28;20457;-64
2022/12/08 14:47:19;;;;;;;14.10;8.80;;;;;;;;;;5092296;28;20841;-64
2022/12/08 14:49:47;;;;;;;9.43;8.52;;;;;;;;;;5092552;28;20453;-64